sensor_id;sensor_type;location;lat;lon;timestamp;P1;durP1;ratioP1;P2;durP2;ratioP2
19521;SDS011;9905;52.126;5.596;2023-07-20T00:01:34;5.07;;;4.75;;
19521;SDS011;9905;52.126;5.596;2023-07-20T00:04:01;4.55;;;4.35;;
19521;SDS011;9905;52.126;5.596;2023-07-20T00:06:28;4.40;;;4.03;;
19521;SDS011;9905;52.126;5.596;2023-07-20T00:08:55;4.60;;;4.30;;
19521;SDS011;9905;52.126;5.596;2023-07-20T00:11:25;4.57;;;4.28;;
19521;SDS011;9905;52.126;5.596;2023-07-20T00:13:53;4.30;;;4.00;;
19521;SDS011;9905;52.126;5.596;2023-07-20T00:16:20;3.72;;;3.53;;
19521;SDS011;9905;52.126;5.596;2023-07-20T00:18:46;3.85;;;3.65;;
19521;SDS011;9905;52.126;5.596;2023-07-20T00:21:13;3.45;;;3.25;;
19521;SDS011;9905;52.126;5.596;2023-07-20T00:23:40;3.55;;;3.35;;
19521;SDS011;9905;52.126;5.596;2023-07-20T00:26:07;3.33;;;3.13;;
19521;SDS011;9905;52.126;5.596;2023-07-20T00:28:35;3.25;;;3.03;;
19521;SDS011;9905;52.126;5.596;2023-07-20T00:31:02;3.35;;;3.05;;
19521;SDS011;9905;52.126;5.596;2023-07-20T00:33:29;3.20;;;3.10;;
19521;SDS011;9905;52.126;5.596;2023-07-20T00:35:56;3.20;;;3.00;;
19521;SDS011;9905;52.126;5.596;2023-07-20T00:38:23;3.35;;;3.05;;
19521;SDS011;9905;52.126;5.596;2023-07-20T00:40:50;3.50;;;3.30;;
19521;SDS011;9905;52.126;5.596;2023-07-20T00:43:17;3.00;;;2.90;;
19521;SDS011;9905;52.126;5.596;2023-07-20T00:45:46;2.83;;;2.72;;
19521;SDS011;9905;52.126;5.596;2023-07-20T00:48:11;3.00;;;2.80;;
19521;SDS011;9905;52.126;5.596;2023-07-20T00:50:40;2.60;;;2.50;;
19521;SDS011;9905;52.126;5.596;2023-07-20T00:53:07;2.80;;;2.60;;
19521;SDS011;9905;52.126;5.596;2023-07-20T00:55:34;2.50;;;2.40;;
19521;SDS011;9905;52.126;5.596;2023-07-20T00:58:01;2.42;;;2.33;;
19521;SDS011;9905;52.126;5.596;2023-07-20T01:00:28;2.60;;;2.50;;
19521;SDS011;9905;52.126;5.596;2023-07-20T01:02:56;2.90;;;2.72;;
19521;SDS011;9905;52.126;5.596;2023-07-20T01:05:24;2.55;;;2.35;;
19521;SDS011;9905;52.126;5.596;2023-07-20T01:07:58;2.40;;;2.35;;
19521;SDS011;9905;52.126;5.596;2023-07-20T01:10:31;2.10;;;2.10;;
19521;SDS011;9905;52.126;5.596;2023-07-20T01:13:02;2.45;;;2.35;;
19521;SDS011;9905;52.126;5.596;2023-07-20T01:15:33;2.60;;;2.50;;
19521;SDS011;9905;52.126;5.596;2023-07-20T01:18:01;2.60;;;2.50;;
19521;SDS011;9905;52.126;5.596;2023-07-20T01:20:29;2.72;;;2.63;;
19521;SDS011;9905;52.126;5.596;2023-07-20T01:26:12;2.20;;;2.20;;
19521;SDS011;9905;52.126;5.596;2023-07-20T01:29:11;2.90;;;2.80;;
19521;SDS011;9905;52.126;5.596;2023-07-20T01:31:50;2.50;;;2.40;;
19521;SDS011;9905;52.126;5.596;2023-07-20T01:34:19;2.65;;;2.55;;
19521;SDS011;9905;52.126;5.596;2023-07-20T01:36:48;3.03;;;2.83;;
19521;SDS011;9905;52.126;5.596;2023-07-20T01:39:18;2.80;;;2.70;;
19521;SDS011;9905;52.126;5.596;2023-07-20T01:41:47;2.88;;;2.78;;
19521;SDS011;9905;52.126;5.596;2023-07-20T01:44:13;2.80;;;2.70;;
19521;SDS011;9905;52.126;5.596;2023-07-20T01:46:40;2.70;;;2.60;;
19521;SDS011;9905;52.126;5.596;2023-07-20T01:49:08;2.50;;;2.40;;
19521;SDS011;9905;52.126;5.596;2023-07-20T01:51:35;2.72;;;2.63;;
19521;SDS011;9905;52.126;5.596;2023-07-20T01:54:02;2.90;;;2.80;;
19521;SDS011;9905;52.126;5.596;2023-07-20T01:56:29;3.00;;;2.90;;
19521;SDS011;9905;52.126;5.596;2023-07-20T01:58:56;2.67;;;2.58;;
19521;SDS011;9905;52.126;5.596;2023-07-20T02:01:22;2.70;;;2.60;;
19521;SDS011;9905;52.126;5.596;2023-07-20T02:03:49;2.90;;;2.80;;
19521;SDS011;9905;52.126;5.596;2023-07-20T02:06:17;3.13;;;3.03;;
19521;SDS011;9905;52.126;5.596;2023-07-20T02:08:44;3.40;;;3.30;;
19521;SDS011;9905;52.126;5.596;2023-07-20T02:11:11;3.30;;;3.00;;
19521;SDS011;9905;52.126;5.596;2023-07-20T02:13:38;3.17;;;3.03;;
19521;SDS011;9905;52.126;5.596;2023-07-20T02:16:05;3.35;;;3.17;;
19521;SDS011;9905;52.126;5.596;2023-07-20T02:18:32;3.20;;;3.10;;
19521;SDS011;9905;52.126;5.596;2023-07-20T02:21:00;3.47;;;3.30;;
19521;SDS011;9905;52.126;5.596;2023-07-20T02:23:28;3.47;;;3.28;;
19521;SDS011;9905;52.126;5.596;2023-07-20T02:25:55;3.60;;;3.40;;
19521;SDS011;9905;52.126;5.596;2023-07-20T02:28:22;3.03;;;2.92;;
19521;SDS011;9905;52.126;5.596;2023-07-20T02:30:48;2.92;;;2.83;;
19521;SDS011;9905;52.126;5.596;2023-07-20T02:33:15;3.30;;;3.15;;
19521;SDS011;9905;52.126;5.596;2023-07-20T02:35:42;3.80;;;3.65;;
19521;SDS011;9905;52.126;5.596;2023-07-20T02:38:09;3.30;;;3.20;;
19521;SDS011;9905;52.126;5.596;2023-07-20T02:40:37;3.35;;;3.25;;
19521;SDS011;9905;52.126;5.596;2023-07-20T02:43:04;3.38;;;3.28;;
19521;SDS011;9905;52.126;5.596;2023-07-20T02:45:31;3.47;;;3.38;;
19521;SDS011;9905;52.126;5.596;2023-07-20T02:47:57;3.13;;;3.03;;
19521;SDS011;9905;52.126;5.596;2023-07-20T02:50:24;2.97;;;2.88;;
19521;SDS011;9905;52.126;5.596;2023-07-20T02:52:51;3.40;;;3.30;;
19521;SDS011;9905;52.126;5.596;2023-07-20T02:55:18;3.47;;;3.28;;
19521;SDS011;9905;52.126;5.596;2023-07-20T02:57:46;3.70;;;3.50;;
19521;SDS011;9905;52.126;5.596;2023-07-20T03:00:13;3.63;;;3.53;;
19521;SDS011;9905;52.126;5.596;2023-07-20T03:02:41;3.45;;;3.17;;
19521;SDS011;9905;52.126;5.596;2023-07-20T03:05:08;3.22;;;3.13;;
19521;SDS011;9905;52.126;5.596;2023-07-20T03:07:35;3.22;;;3.13;;
19521;SDS011;9905;52.126;5.596;2023-07-20T03:10:02;3.85;;;3.50;;
19521;SDS011;9905;52.126;5.596;2023-07-20T03:12:32;3.60;;;3.40;;
19521;SDS011;9905;52.126;5.596;2023-07-20T03:15:01;3.65;;;3.45;;
19521;SDS011;9905;52.126;5.596;2023-07-20T03:17:27;3.97;;;3.63;;
19521;SDS011;9905;52.126;5.596;2023-07-20T03:19:54;3.40;;;3.22;;
19521;SDS011;9905;52.126;5.596;2023-07-20T03:22:21;4.05;;;3.85;;
19521;SDS011;9905;52.126;5.596;2023-07-20T03:24:49;4.13;;;3.85;;
19521;SDS011;9905;52.126;5.596;2023-07-20T03:27:16;3.33;;;3.22;;
19521;SDS011;9905;52.126;5.596;2023-07-20T03:29:43;4.00;;;3.70;;
19521;SDS011;9905;52.126;5.596;2023-07-20T03:32:11;4.00;;;3.70;;
19521;SDS011;9905;52.126;5.596;2023-07-20T03:34:38;4.28;;;4.07;;
19521;SDS011;9905;52.126;5.596;2023-07-20T03:37:05;3.85;;;3.65;;
19521;SDS011;9905;52.126;5.596;2023-07-20T03:39:32;3.83;;;3.53;;
19521;SDS011;9905;52.126;5.596;2023-07-20T03:42:00;4.40;;;4.20;;
19521;SDS011;9905;52.126;5.596;2023-07-20T03:44:27;4.10;;;3.90;;
19521;SDS011;9905;52.126;5.596;2023-07-20T03:46:54;3.83;;;3.70;;
19521;SDS011;9905;52.126;5.596;2023-07-20T03:49:22;4.43;;;4.22;;
19521;SDS011;9905;52.126;5.596;2023-07-20T03:51:49;4.30;;;4.10;;
19521;SDS011;9905;52.126;5.596;2023-07-20T03:54:16;4.00;;;3.80;;
19521;SDS011;9905;52.126;5.596;2023-07-20T03:56:44;4.15;;;3.97;;
19521;SDS011;9905;52.126;5.596;2023-07-20T03:59:11;4.95;;;4.75;;
19521;SDS011;9905;52.126;5.596;2023-07-20T04:01:38;4.40;;;4.20;;
19521;SDS011;9905;52.126;5.596;2023-07-20T04:04:06;4.20;;;3.92;;
19521;SDS011;9905;52.126;5.596;2023-07-20T04:06:35;4.35;;;4.15;;
19521;SDS011;9905;52.126;5.596;2023-07-20T04:09:02;4.25;;;4.03;;
19521;SDS011;9905;52.126;5.596;2023-07-20T04:11:30;4.28;;;4.10;;
19521;SDS011;9905;52.126;5.596;2023-07-20T04:13:57;4.35;;;4.25;;
19521;SDS011;9905;52.126;5.596;2023-07-20T04:16:24;4.30;;;4.10;;
19521;SDS011;9905;52.126;5.596;2023-07-20T04:18:52;4.63;;;4.22;;
19521;SDS011;9905;52.126;5.596;2023-07-20T04:21:20;4.72;;;4.43;;
19521;SDS011;9905;52.126;5.596;2023-07-20T04:23:48;4.53;;;4.32;;
19521;SDS011;9905;52.126;5.596;2023-07-20T04:26:15;5.43;;;5.13;;
19521;SDS011;9905;52.126;5.596;2023-07-20T04:28:42;4.90;;;4.60;;
19521;SDS011;9905;52.126;5.596;2023-07-20T04:31:09;5.32;;;5.03;;
19521;SDS011;9905;52.126;5.596;2023-07-20T04:33:37;5.00;;;4.80;;
19521;SDS011;9905;52.126;5.596;2023-07-20T04:36:04;5.15;;;4.95;;
19521;SDS011;9905;52.126;5.596;2023-07-20T04:38:31;5.22;;;4.78;;
19521;SDS011;9905;52.126;5.596;2023-07-20T04:40:59;5.28;;;4.95;;
19521;SDS011;9905;52.126;5.596;2023-07-20T04:43:27;5.00;;;4.72;;
19521;SDS011;9905;52.126;5.596;2023-07-20T04:45:55;4.70;;;4.40;;
19521;SDS011;9905;52.126;5.596;2023-07-20T04:48:22;4.97;;;4.68;;
19521;SDS011;9905;52.126;5.596;2023-07-20T04:50:48;4.72;;;4.53;;
19521;SDS011;9905;52.126;5.596;2023-07-20T04:53:15;4.57;;;4.30;;
19521;SDS011;9905;52.126;5.596;2023-07-20T04:55:46;4.75;;;4.55;;
19521;SDS011;9905;52.126;5.596;2023-07-20T04:58:16;5.03;;;4.72;;
19521;SDS011;9905;52.126;5.596;2023-07-20T05:00:44;5.05;;;4.75;;
19521;SDS011;9905;52.126;5.596;2023-07-20T05:03:11;4.38;;;4.18;;
19521;SDS011;9905;52.126;5.596;2023-07-20T05:05:38;4.60;;;4.25;;
19521;SDS011;9905;52.126;5.596;2023-07-20T05:08:04;4.47;;;4.28;;
19521;SDS011;9905;52.126;5.596;2023-07-20T05:10:32;4.70;;;4.50;;
19521;SDS011;9905;52.126;5.596;2023-07-20T05:12:59;5.00;;;4.57;;
19521;SDS011;9905;52.126;5.596;2023-07-20T05:15:27;4.22;;;3.95;;
19521;SDS011;9905;52.126;5.596;2023-07-20T05:17:54;4.70;;;4.40;;
19521;SDS011;9905;52.126;5.596;2023-07-20T05:20:21;4.60;;;4.30;;
19521;SDS011;9905;52.126;5.596;2023-07-20T05:22:47;4.75;;;4.53;;
19521;SDS011;9905;52.126;5.596;2023-07-20T05:25:14;4.90;;;4.60;;
19521;SDS011;9905;52.126;5.596;2023-07-20T05:27:43;5.00;;;4.55;;
19521;SDS011;9905;52.126;5.596;2023-07-20T05:30:11;5.00;;;4.70;;
19521;SDS011;9905;52.126;5.596;2023-07-20T05:32:39;4.47;;;4.28;;
19521;SDS011;9905;52.126;5.596;2023-07-20T05:35:07;4.07;;;3.92;;
19521;SDS011;9905;52.126;5.596;2023-07-20T05:37:36;4.50;;;4.30;;
19521;SDS011;9905;52.126;5.596;2023-07-20T05:40:04;4.40;;;4.20;;
19521;SDS011;9905;52.126;5.596;2023-07-20T05:42:32;4.20;;;4.00;;
19521;SDS011;9905;52.126;5.596;2023-07-20T05:44:59;5.70;;;4.60;;
19521;SDS011;9905;52.126;5.596;2023-07-20T05:47:26;4.60;;;4.40;;
19521;SDS011;9905;52.126;5.596;2023-07-20T05:49:55;3.78;;;3.58;;
19521;SDS011;9905;52.126;5.596;2023-07-20T05:52:22;4.10;;;3.90;;
19521;SDS011;9905;52.126;5.596;2023-07-20T05:54:51;4.75;;;4.40;;
19521;SDS011;9905;52.126;5.596;2023-07-20T05:57:18;4.40;;;4.05;;
19521;SDS011;9905;52.126;5.596;2023-07-20T05:59:44;4.90;;;4.60;;
19521;SDS011;9905;52.126;5.596;2023-07-20T06:02:13;4.47;;;4.28;;
19521;SDS011;9905;52.126;5.596;2023-07-20T06:04:40;4.32;;;4.13;;
19521;SDS011;9905;52.126;5.596;2023-07-20T06:07:08;4.03;;;3.83;;
19521;SDS011;9905;52.126;5.596;2023-07-20T06:09:35;4.32;;;3.92;;
19521;SDS011;9905;52.126;5.596;2023-07-20T06:12:01;4.22;;;4.03;;
19521;SDS011;9905;52.126;5.596;2023-07-20T06:14:28;3.60;;;3.40;;
19521;SDS011;9905;52.126;5.596;2023-07-20T06:16:55;3.80;;;3.70;;
19521;SDS011;9905;52.126;5.596;2023-07-20T06:19:23;3.35;;;3.15;;
19521;SDS011;9905;52.126;5.596;2023-07-20T06:21:49;3.35;;;3.15;;
19521;SDS011;9905;52.126;5.596;2023-07-20T06:24:18;3.05;;;2.95;;
19521;SDS011;9905;52.126;5.596;2023-07-20T06:26:45;3.72;;;3.45;;
19521;SDS011;9905;52.126;5.596;2023-07-20T06:29:11;3.50;;;3.40;;
19521;SDS011;9905;52.126;5.596;2023-07-20T06:31:38;3.03;;;2.92;;
19521;SDS011;9905;52.126;5.596;2023-07-20T06:34:05;3.15;;;2.92;;
19521;SDS011;9905;52.126;5.596;2023-07-20T06:36:32;2.80;;;2.70;;
19521;SDS011;9905;52.126;5.596;2023-07-20T06:38:59;3.10;;;3.00;;
19521;SDS011;9905;52.126;5.596;2023-07-20T06:41:29;3.08;;;2.90;;
19521;SDS011;9905;52.126;5.596;2023-07-20T06:43:56;2.75;;;2.60;;
19521;SDS011;9905;52.126;5.596;2023-07-20T06:46:24;2.70;;;2.60;;
19521;SDS011;9905;52.126;5.596;2023-07-20T06:48:53;2.72;;;2.63;;
19521;SDS011;9905;52.126;5.596;2023-07-20T06:51:22;3.78;;;2.95;;
19521;SDS011;9905;52.126;5.596;2023-07-20T06:53:49;3.30;;;3.00;;
19521;SDS011;9905;52.126;5.596;2023-07-20T06:56:15;3.33;;;2.58;;
19521;SDS011;9905;52.126;5.596;2023-07-20T06:58:43;3.05;;;2.85;;
19521;SDS011;9905;52.126;5.596;2023-07-20T07:01:10;2.78;;;2.67;;
19521;SDS011;9905;52.126;5.596;2023-07-20T07:03:37;2.78;;;2.67;;
19521;SDS011;9905;52.126;5.596;2023-07-20T07:06:04;2.60;;;2.50;;
19521;SDS011;9905;52.126;5.596;2023-07-20T07:08:31;2.60;;;2.50;;
19521;SDS011;9905;52.126;5.596;2023-07-20T07:10:57;2.25;;;2.15;;
19521;SDS011;9905;52.126;5.596;2023-07-20T07:13:24;3.53;;;2.13;;
19521;SDS011;9905;52.126;5.596;2023-07-20T07:15:52;1.70;;;1.70;;
19521;SDS011;9905;52.126;5.596;2023-07-20T07:18:19;2.00;;;1.90;;
19521;SDS011;9905;52.126;5.596;2023-07-20T07:20:50;2.00;;;2.00;;
19521;SDS011;9905;52.126;5.596;2023-07-20T07:23:18;2.38;;;2.28;;
19521;SDS011;9905;52.126;5.596;2023-07-20T07:25:45;2.55;;;2.45;;
19521;SDS011;9905;52.126;5.596;2023-07-20T07:28:12;2.30;;;2.20;;
19521;SDS011;9905;52.126;5.596;2023-07-20T07:30:39;2.20;;;2.10;;
19521;SDS011;9905;52.126;5.596;2023-07-20T07:33:07;1.70;;;1.70;;
19521;SDS011;9905;52.126;5.596;2023-07-20T07:35:34;1.70;;;1.60;;
19521;SDS011;9905;52.126;5.596;2023-07-20T07:38:01;1.40;;;1.40;;
19521;SDS011;9905;52.126;5.596;2023-07-20T07:40:28;2.15;;;2.05;;
19521;SDS011;9905;52.126;5.596;2023-07-20T07:42:54;1.92;;;1.83;;
19521;SDS011;9905;52.126;5.596;2023-07-20T07:45:21;2.03;;;1.70;;
19521;SDS011;9905;52.126;5.596;2023-07-20T07:47:47;1.73;;;1.65;;
19521;SDS011;9905;52.126;5.596;2023-07-20T07:50:16;1.63;;;1.63;;
19521;SDS011;9905;52.126;5.596;2023-07-20T07:52:42;1.92;;;1.85;;
19521;SDS011;9905;52.126;5.596;2023-07-20T07:55:09;1.55;;;1.50;;
19521;SDS011;9905;52.126;5.596;2023-07-20T07:57:36;1.63;;;1.52;;
19521;SDS011;9905;52.126;5.596;2023-07-20T08:00:03;1.33;;;1.33;;
19521;SDS011;9905;52.126;5.596;2023-07-20T08:02:35;1.52;;;1.52;;
19521;SDS011;9905;52.126;5.596;2023-07-20T08:05:02;1.83;;;1.73;;
19521;SDS011;9905;52.126;5.596;2023-07-20T08:07:31;1.67;;;1.67;;
19521;SDS011;9905;52.126;5.596;2023-07-20T08:09:57;1.35;;;1.35;;
19521;SDS011;9905;52.126;5.596;2023-07-20T08:12:25;1.85;;;1.75;;
19521;SDS011;9905;52.126;5.596;2023-07-20T08:14:52;1.60;;;1.60;;
19521;SDS011;9905;52.126;5.596;2023-07-20T08:17:19;1.67;;;1.67;;
19521;SDS011;9905;52.126;5.596;2023-07-20T08:19:46;1.60;;;1.50;;
19521;SDS011;9905;52.126;5.596;2023-07-20T08:22:13;1.98;;;1.90;;
19521;SDS011;9905;52.126;5.596;2023-07-20T08:24:42;1.70;;;1.70;;
19521;SDS011;9905;52.126;5.596;2023-07-20T08:27:10;2.50;;;1.48;;
19521;SDS011;9905;52.126;5.596;2023-07-20T08:29:37;2.00;;;1.77;;
19521;SDS011;9905;52.126;5.596;2023-07-20T08:32:05;1.80;;;1.70;;
19521;SDS011;9905;52.126;5.596;2023-07-20T08:34:33;1.60;;;1.50;;
19521;SDS011;9905;52.126;5.596;2023-07-20T08:37:00;1.60;;;1.60;;
19521;SDS011;9905;52.126;5.596;2023-07-20T08:39:27;1.40;;;1.40;;
19521;SDS011;9905;52.126;5.596;2023-07-20T08:41:55;1.40;;;1.40;;
19521;SDS011;9905;52.126;5.596;2023-07-20T08:44:25;1.30;;;1.30;;
19521;SDS011;9905;52.126;5.596;2023-07-20T08:46:52;1.23;;;1.20;;
19521;SDS011;9905;52.126;5.596;2023-07-20T08:49:20;1.15;;;1.00;;
19521;SDS011;9905;52.126;5.596;2023-07-20T08:51:47;1.15;;;1.15;;
19521;SDS011;9905;52.126;5.596;2023-07-20T08:54:15;1.30;;;1.30;;
19521;SDS011;9905;52.126;5.596;2023-07-20T08:56:43;1.30;;;1.30;;
19521;SDS011;9905;52.126;5.596;2023-07-20T08:59:14;1.20;;;1.20;;
19521;SDS011;9905;52.126;5.596;2023-07-20T09:01:43;1.38;;;1.38;;
19521;SDS011;9905;52.126;5.596;2023-07-20T09:04:10;1.20;;;1.20;;
19521;SDS011;9905;52.126;5.596;2023-07-20T09:06:38;1.17;;;1.17;;
19521;SDS011;9905;52.126;5.596;2023-07-20T09:09:05;1.20;;;1.20;;
19521;SDS011;9905;52.126;5.596;2023-07-20T09:11:31;1.27;;;1.17;;
19521;SDS011;9905;52.126;5.596;2023-07-20T09:14:05;1.27;;;1.27;;
19521;SDS011;9905;52.126;5.596;2023-07-20T09:16:34;1.10;;;1.10;;
19521;SDS011;9905;52.126;5.596;2023-07-20T09:19:14;2.08;;;1.35;;
19521;SDS011;9905;52.126;5.596;2023-07-20T09:21:43;1.58;;;1.58;;
19521;SDS011;9905;52.126;5.596;2023-07-20T09:24:11;1.40;;;1.40;;
19521;SDS011;9905;52.126;5.596;2023-07-20T09:26:40;1.67;;;1.58;;
19521;SDS011;9905;52.126;5.596;2023-07-20T09:29:08;1.45;;;1.45;;
19521;SDS011;9905;52.126;5.596;2023-07-20T09:31:36;1.30;;;1.30;;
19521;SDS011;9905;52.126;5.596;2023-07-20T09:34:03;1.35;;;1.35;;
19521;SDS011;9905;52.126;5.596;2023-07-20T09:36:32;1.42;;;1.33;;
19521;SDS011;9905;52.126;5.596;2023-07-20T09:39:00;1.20;;;1.20;;
19521;SDS011;9905;52.126;5.596;2023-07-20T09:41:29;1.42;;;1.38;;
19521;SDS011;9905;52.126;5.596;2023-07-20T09:43:55;1.40;;;1.40;;
19521;SDS011;9905;52.126;5.596;2023-07-20T09:46:22;1.20;;;1.20;;
19521;SDS011;9905;52.126;5.596;2023-07-20T09:48:53;1.65;;;1.20;;
19521;SDS011;9905;52.126;5.596;2023-07-20T09:51:21;1.20;;;1.20;;
19521;SDS011;9905;52.126;5.596;2023-07-20T09:53:49;1.10;;;1.10;;
19521;SDS011;9905;52.126;5.596;2023-07-20T09:56:18;1.85;;;1.20;;
19521;SDS011;9905;52.126;5.596;2023-07-20T09:58:48;1.00;;;1.00;;
19521;SDS011;9905;52.126;5.596;2023-07-20T10:01:15;1.00;;;1.00;;
19521;SDS011;9905;52.126;5.596;2023-07-20T10:03:46;0.82;;;0.82;;
19521;SDS011;9905;52.126;5.596;2023-07-20T10:06:20;1.30;;;1.30;;
19521;SDS011;9905;52.126;5.596;2023-07-20T10:08:51;1.05;;;1.05;;
19521;SDS011;9905;52.126;5.596;2023-07-20T10:11:19;1.08;;;1.08;;
19521;SDS011;9905;52.126;5.596;2023-07-20T10:13:51;1.20;;;1.20;;
19521;SDS011;9905;52.126;5.596;2023-07-20T10:16:21;0.95;;;0.95;;
19521;SDS011;9905;52.126;5.596;2023-07-20T10:18:54;1.10;;;1.10;;
19521;SDS011;9905;52.126;5.596;2023-07-20T10:21:29;1.30;;;1.30;;
19521;SDS011;9905;52.126;5.596;2023-07-20T10:23:56;1.15;;;1.15;;
19521;SDS011;9905;52.126;5.596;2023-07-20T10:26:23;0.90;;;0.90;;
19521;SDS011;9905;52.126;5.596;2023-07-20T10:28:51;1.02;;;1.02;;
19521;SDS011;9905;52.126;5.596;2023-07-20T10:31:18;1.08;;;1.00;;
19521;SDS011;9905;52.126;5.596;2023-07-20T10:33:46;1.10;;;1.10;;
19521;SDS011;9905;52.126;5.596;2023-07-20T10:36:15;0.93;;;0.93;;
19521;SDS011;9905;52.126;5.596;2023-07-20T10:38:52;0.98;;;0.98;;
19521;SDS011;9905;52.126;5.596;2023-07-20T10:41:20;0.93;;;0.93;;
19521;SDS011;9905;52.126;5.596;2023-07-20T10:43:49;1.23;;;1.23;;
19521;SDS011;9905;52.126;5.596;2023-07-20T10:46:33;1.25;;;1.25;;
19521;SDS011;9905;52.126;5.596;2023-07-20T10:49:01;1.20;;;1.10;;
19521;SDS011;9905;52.126;5.596;2023-07-20T10:51:29;1.15;;;1.15;;
19521;SDS011;9905;52.126;5.596;2023-07-20T10:53:57;1.13;;;1.13;;
19521;SDS011;9905;52.126;5.596;2023-07-20T10:56:25;1.20;;;1.20;;
19521;SDS011;9905;52.126;5.596;2023-07-20T10:58:57;1.10;;;1.10;;
19521;SDS011;9905;52.126;5.596;2023-07-20T11:01:27;0.90;;;0.90;;
19521;SDS011;9905;52.126;5.596;2023-07-20T11:03:57;1.00;;;1.00;;
19521;SDS011;9905;52.126;5.596;2023-07-20T11:06:31;1.00;;;1.00;;
19521;SDS011;9905;52.126;5.596;2023-07-20T11:09:05;0.90;;;0.90;;
19521;SDS011;9905;52.126;5.596;2023-07-20T11:11:36;1.10;;;1.10;;
19521;SDS011;9905;52.126;5.596;2023-07-20T11:14:03;0.90;;;0.90;;
19521;SDS011;9905;52.126;5.596;2023-07-20T11:16:32;0.90;;;0.90;;
19521;SDS011;9905;52.126;5.596;2023-07-20T11:19:00;0.95;;;0.95;;
19521;SDS011;9905;52.126;5.596;2023-07-20T11:21:27;1.88;;;1.10;;
19521;SDS011;9905;52.126;5.596;2023-07-20T11:23:55;1.00;;;1.00;;
19521;SDS011;9905;52.126;5.596;2023-07-20T11:26:23;0.80;;;0.80;;
19521;SDS011;9905;52.126;5.596;2023-07-20T11:28:50;0.65;;;0.65;;
19521;SDS011;9905;52.126;5.596;2023-07-20T11:31:17;0.93;;;0.93;;
19521;SDS011;9905;52.126;5.596;2023-07-20T11:33:44;0.85;;;0.85;;
19521;SDS011;9905;52.126;5.596;2023-07-20T11:36:11;0.90;;;0.90;;
19521;SDS011;9905;52.126;5.596;2023-07-20T11:38:39;0.95;;;0.95;;
19521;SDS011;9905;52.126;5.596;2023-07-20T11:41:09;1.63;;;1.00;;
19521;SDS011;9905;52.126;5.596;2023-07-20T11:43:38;0.60;;;0.60;;
19521;SDS011;9905;52.126;5.596;2023-07-20T11:46:08;0.90;;;0.90;;
19521;SDS011;9905;52.126;5.596;2023-07-20T11:48:35;1.00;;;1.00;;
19521;SDS011;9905;52.126;5.596;2023-07-20T11:51:02;0.85;;;0.85;;
19521;SDS011;9905;52.126;5.596;2023-07-20T11:53:30;0.90;;;0.90;;
19521;SDS011;9905;52.126;5.596;2023-07-20T11:55:58;0.90;;;0.90;;
19521;SDS011;9905;52.126;5.596;2023-07-20T11:58:27;1.33;;;0.85;;
19521;SDS011;9905;52.126;5.596;2023-07-20T12:00:55;0.70;;;0.70;;
19521;SDS011;9905;52.126;5.596;2023-07-20T12:03:23;0.85;;;0.85;;
19521;SDS011;9905;52.126;5.596;2023-07-20T12:05:49;1.00;;;1.00;;
19521;SDS011;9905;52.126;5.596;2023-07-20T12:08:17;1.05;;;0.90;;
19521;SDS011;9905;52.126;5.596;2023-07-20T12:10:43;1.00;;;1.00;;
19521;SDS011;9905;52.126;5.596;2023-07-20T12:13:11;0.90;;;0.90;;
19521;SDS011;9905;52.126;5.596;2023-07-20T12:15:38;0.88;;;0.88;;
19521;SDS011;9905;52.126;5.596;2023-07-20T12:18:06;0.80;;;0.80;;
19521;SDS011;9905;52.126;5.596;2023-07-20T12:20:34;0.70;;;0.70;;
19521;SDS011;9905;52.126;5.596;2023-07-20T12:23:03;0.90;;;0.90;;
19521;SDS011;9905;52.126;5.596;2023-07-20T12:25:38;0.80;;;0.80;;
19521;SDS011;9905;52.126;5.596;2023-07-20T12:28:06;0.82;;;0.82;;
19521;SDS011;9905;52.126;5.596;2023-07-20T12:30:34;0.90;;;0.90;;
19521;SDS011;9905;52.126;5.596;2023-07-20T12:33:01;0.85;;;0.85;;
19521;SDS011;9905;52.126;5.596;2023-07-20T12:35:30;0.88;;;0.88;;
19521;SDS011;9905;52.126;5.596;2023-07-20T12:37:57;0.70;;;0.70;;
19521;SDS011;9905;52.126;5.596;2023-07-20T12:40:24;2.22;;;0.93;;
19521;SDS011;9905;52.126;5.596;2023-07-20T12:42:51;0.70;;;0.70;;
19521;SDS011;9905;52.126;5.596;2023-07-20T12:45:18;1.88;;;1.00;;
19521;SDS011;9905;52.126;5.596;2023-07-20T12:47:45;1.00;;;1.00;;
19521;SDS011;9905;52.126;5.596;2023-07-20T12:50:12;0.80;;;0.80;;
19521;SDS011;9905;52.126;5.596;2023-07-20T12:52:40;0.88;;;0.88;;
19521;SDS011;9905;52.126;5.596;2023-07-20T12:55:07;0.85;;;0.85;;
19521;SDS011;9905;52.126;5.596;2023-07-20T12:57:35;0.90;;;0.90;;
19521;SDS011;9905;52.126;5.596;2023-07-20T13:00:03;1.23;;;0.90;;
19521;SDS011;9905;52.126;5.596;2023-07-20T13:02:32;0.70;;;0.70;;
19521;SDS011;9905;52.126;5.596;2023-07-20T13:04:59;0.95;;;0.95;;
19521;SDS011;9905;52.126;5.596;2023-07-20T13:07:29;0.68;;;0.68;;
19521;SDS011;9905;52.126;5.596;2023-07-20T13:09:59;1.00;;;1.00;;
19521;SDS011;9905;52.126;5.596;2023-07-20T13:12:26;0.82;;;0.82;;
19521;SDS011;9905;52.126;5.596;2023-07-20T13:14:54;0.93;;;0.93;;
19521;SDS011;9905;52.126;5.596;2023-07-20T13:17:21;0.80;;;0.80;;
19521;SDS011;9905;52.126;5.596;2023-07-20T13:19:48;0.93;;;0.73;;
19521;SDS011;9905;52.126;5.596;2023-07-20T13:22:15;1.33;;;1.00;;
19521;SDS011;9905;52.126;5.596;2023-07-20T13:24:43;1.23;;;1.00;;
19521;SDS011;9905;52.126;5.596;2023-07-20T13:27:12;0.85;;;0.85;;
19521;SDS011;9905;52.126;5.596;2023-07-20T13:29:39;0.90;;;0.90;;
19521;SDS011;9905;52.126;5.596;2023-07-20T13:32:07;0.80;;;0.80;;
19521;SDS011;9905;52.126;5.596;2023-07-20T13:34:34;0.90;;;0.90;;
19521;SDS011;9905;52.126;5.596;2023-07-20T13:37:01;0.93;;;0.93;;
19521;SDS011;9905;52.126;5.596;2023-07-20T13:39:28;1.48;;;0.98;;
19521;SDS011;9905;52.126;5.596;2023-07-20T13:41:55;0.80;;;0.80;;
19521;SDS011;9905;52.126;5.596;2023-07-20T13:44:23;1.13;;;1.00;;
19521;SDS011;9905;52.126;5.596;2023-07-20T13:46:50;1.13;;;0.70;;
19521;SDS011;9905;52.126;5.596;2023-07-20T13:49:17;2.75;;;0.98;;
19521;SDS011;9905;52.126;5.596;2023-07-20T13:51:43;0.80;;;0.80;;
19521;SDS011;9905;52.126;5.596;2023-07-20T13:54:10;1.08;;;0.90;;
19521;SDS011;9905;52.126;5.596;2023-07-20T13:56:37;0.82;;;0.82;;
19521;SDS011;9905;52.126;5.596;2023-07-20T13:59:04;2.58;;;0.95;;
19521;SDS011;9905;52.126;5.596;2023-07-20T14:01:32;1.20;;;1.20;;
19521;SDS011;9905;52.126;5.596;2023-07-20T14:04:00;1.23;;;1.20;;
19521;SDS011;9905;52.126;5.596;2023-07-20T14:06:29;0.82;;;0.80;;
19521;SDS011;9905;52.126;5.596;2023-07-20T14:08:57;0.98;;;0.98;;
19521;SDS011;9905;52.126;5.596;2023-07-20T14:11:24;1.00;;;1.00;;
19521;SDS011;9905;52.126;5.596;2023-07-20T14:13:51;1.45;;;1.45;;
19521;SDS011;9905;52.126;5.596;2023-07-20T14:16:19;1.00;;;1.00;;
19521;SDS011;9905;52.126;5.596;2023-07-20T14:18:47;1.13;;;1.05;;
19521;SDS011;9905;52.126;5.596;2023-07-20T14:21:14;1.30;;;1.13;;
19521;SDS011;9905;52.126;5.596;2023-07-20T14:23:41;1.67;;;1.67;;
19521;SDS011;9905;52.126;5.596;2023-07-20T14:26:07;1.13;;;0.80;;
19521;SDS011;9905;52.126;5.596;2023-07-20T14:28:35;1.00;;;1.00;;
19521;SDS011;9905;52.126;5.596;2023-07-20T14:31:02;2.58;;;1.10;;
19521;SDS011;9905;52.126;5.596;2023-07-20T14:33:30;1.00;;;1.00;;
19521;SDS011;9905;52.126;5.596;2023-07-20T14:35:58;0.90;;;0.90;;
19521;SDS011;9905;52.126;5.596;2023-07-20T14:38:26;0.98;;;0.98;;
19521;SDS011;9905;52.126;5.596;2023-07-20T14:40:53;0.90;;;0.90;;
19521;SDS011;9905;52.126;5.596;2023-07-20T14:43:20;1.00;;;1.00;;
19521;SDS011;9905;52.126;5.596;2023-07-20T14:45:47;0.80;;;0.80;;
19521;SDS011;9905;52.126;5.596;2023-07-20T14:48:14;0.95;;;0.95;;
19521;SDS011;9905;52.126;5.596;2023-07-20T14:50:41;1.13;;;1.13;;
19521;SDS011;9905;52.126;5.596;2023-07-20T14:53:11;1.15;;;1.10;;
19521;SDS011;9905;52.126;5.596;2023-07-20T14:55:39;1.08;;;1.08;;
19521;SDS011;9905;52.126;5.596;2023-07-20T14:58:06;1.90;;;1.20;;
19521;SDS011;9905;52.126;5.596;2023-07-20T15:00:32;1.08;;;1.00;;
19521;SDS011;9905;52.126;5.596;2023-07-20T15:03:00;0.93;;;0.93;;
19521;SDS011;9905;52.126;5.596;2023-07-20T15:05:26;0.95;;;0.95;;
19521;SDS011;9905;52.126;5.596;2023-07-20T15:07:53;1.13;;;1.10;;